Wetterdaten: Samstag, 11.08.2012
Datum Zeit Temperatur Luftfeuchte Regen Wind Richtung Richtung Taupunkt Windchill Windben
11.08.2012 00:00 14,3 C 84 % 0,0 l/m 1,3 km/h (1 Bft) NO 45 11,6 C 14,3 C 0,0 km/h (0 Bft)
11.08.2012 00:05 14,2 C 84 % 0,0 l/m 0,0 km/h (0 Bft) SO 135 11,5 C 14,0 C 0,0 km/h (0 Bft)
11.08.2012 00:10 14,0 C 84 % 0,0 l/m 0,2 km/h (0 Bft) SO 135 11,3 C 13,8 C 0,0 km/h (0 Bft)
11.08.2012 00:15 13,7 C 84 % 0,0 l/m 0,6 km/h (0 Bft) NO 45 11,0 C 13,6 C 0,0 km/h (0 Bft)
11.08.2012 00:20 13,9 C 85 % 0,0 l/m 0,5 km/h (0 Bft) N-NO 22 11,4 C 13,5 C 2,3 km/h (1 Bft)
11.08.2012 00:25 13,9 C 85 % 0,0 l/m 0,2 km/h (0 Bft) N-NO 22 11,4 C 13,6 C 0,0 km/h (0 Bft)
11.08.2012 00:30 13,9 C 84 % 0,0 l/m 0,3 km/h (0 Bft) N-NO 22 11,2 C 13,6 C 2,3 km/h (1 Bft)
11.08.2012 00:35 13,8 C 85 % 0,0 l/m 0,5 km/h (0 Bft) N-NO 22 11,3 C 13,6 C 0,0 km/h (0 Bft)
11.08.2012 00:40 13,7 C 85 % 0,0 l/m 0,5 km/h (0 Bft) NO 45 11,2 C 13,5 C 0,0 km/h (0 Bft)
11.08.2012 00:45 13,5 C 85 % 0,0 l/m 0,2 km/h (0 Bft) NO 45 11,0 C 13,3 C 0,0 km/h (0 Bft)
11.08.2012 00:50 13,5 C 85 % 0,0 l/m 0,0 km/h (0 Bft) NO 45 11,0 C 13,2 C 0,0 km/h (0 Bft)
11.08.2012 00:55 13,5 C 85 % 0,0 l/m 0,2 km/h (0 Bft) N 360 11,0 C 13,1 C 0,0 km/h (0 Bft)
11.08.2012 01:00 13,6 C 85 % 0,0 l/m 0,3 km/h (0 Bft) N-NO 22 11,1 C 13,2 C 0,0 km/h (0 Bft)
11.08.2012 01:05 13,6 C 85 % 0,0 l/m 0,2 km/h (0 Bft) S 180 11,1 C 13,2 C 4,2 km/h (1 Bft)
11.08.2012 01:10 13,6 C 85 % 0,0 l/m 0,0 km/h (0 Bft) S 180 11,1 C 13,2 C 0,0 km/h (0 Bft)
11.08.2012 01:15 13,5 C 85 % 0,0 l/m 0,0 km/h (0 Bft) N 360 11,0 C 13,1 C 0,0 km/h (0 Bft)
11.08.2012 01:20 13,4 C 85 % 0,0 l/m 0,0 km/h (0 Bft) O 90 10,9 C 13,0 C 0,0 km/h (0 Bft)
11.08.2012 01:25 13,0 C 85 % 0,0 l/m 0,2 km/h (0 Bft) N-NO 22 10,5 C 12,7 C 0,0 km/h (0 Bft)
11.08.2012 01:30 12,9 C 86 % 0,0 l/m 0,3 km/h (0 Bft) N-NO 22 10,6 C 12,5 C 0,0 km/h (0 Bft)
11.08.2012 01:35 12,8 C 86 % 0,0 l/m 0,2 km/h (0 Bft) N-NO 22 10,5 C 12,3 C 0,0 km/h (0 Bft)
11.08.2012 01:40 12,6 C 86 % 0,0 l/m 0,0 km/h (0 Bft) N-NO 22 10,3 C 12,1 C 0,0 km/h (0 Bft)
11.08.2012 01:45 12,5 C 87 % 0,0 l/m 0,5 km/h (0 Bft) N 360 10,4 C 11,9 C 0,0 km/h (0 Bft)
11.08.2012 01:50 12,4 C 87 % 0,0 l/m 0,6 km/h (0 Bft) N 360 10,3 C 11,8 C 0,0 km/h (0 Bft)
11.08.2012 01:55 12,2 C 87 % 0,0 l/m 0,2 km/h (0 Bft) NO 45 10,1 C 11,6 C 0,0 km/h (0 Bft)
11.08.2012 02:00 12,1 C 87 % 0,0 l/m 0,0 km/h (0 Bft) NO 45 10,0 C 11,5 C 0,0 km/h (0 Bft)
11.08.2012 02:05 11,7 C 87 % 0,0 l/m 0,0 km/h (0 Bft) SO 135 9,6 C 11,2 C 0,0 km/h (0 Bft)
11.08.2012 02:10 11,8 C 87 % 0,0 l/m 0,0 km/h (0 Bft) NO 45 9,7 C 11,0 C 0,0 km/h (0 Bft)
11.08.2012 02:15 11,6 C 88 % 0,0 l/m 0,0 km/h (0 Bft) NO 45 9,7 C 11,0 C 0,0 km/h (0 Bft)
11.08.2012 02:20 11,6 C 88 % 0,0 l/m 0,0 km/h (0 Bft) SO 135 9,7 C 11,0 C 0,0 km/h (0 Bft)
11.08.2012 02:25 11,5 C 88 % 0,0 l/m 0,0 km/h (0 Bft) NO 45 9,6 C 10,9 C 0,0 km/h (0 Bft)
11.08.2012 02:30 11,4 C 88 % 0,0 l/m 0,0 km/h (0 Bft) O-SO 112 9,5 C 10,9 C 0,0 km/h (0 Bft)
11.08.2012 02:35 11,2 C 88 % 0,0 l/m 0,0 km/h (0 Bft) O-SO 112 9,3 C 10,7 C 0,0 km/h (0 Bft)
11.08.2012 02:40 11,3 C 88 % 0,0 l/m 0,3 km/h (0 Bft) N 360 9,4 C 10,6 C 0,0 km/h (0 Bft)
11.08.2012 02:45 11,3 C 88 % 0,0 l/m 0,3 km/h (0 Bft) NO 45 9,4 C 10,7 C 1,6 km/h (1 Bft)
11.08.2012 02:50 11,2 C 89 % 0,0 l/m 0,5 km/h (0 Bft) NO 45 9,5 C 10,7 C 0,0 km/h (0 Bft)
11.08.2012 02:55 11,3 C 89 % 0,0 l/m 0,5 km/h (0 Bft) N 360 9,6 C 10,7 C 0,0 km/h (0 Bft)
11.08.2012 03:00 11,3 C 89 % 0,0 l/m 0,0 km/h (0 Bft) NO 45 9,6 C 10,6 C 0,0 km/h (0 Bft)
11.08.2012 03:05 11,3 C 89 % 0,0 l/m 0,0 km/h (0 Bft) N-NO 22 9,6 C 10,6 C 0,0 km/h (0 Bft)
11.08.2012 03:10 11,1 C 89 % 0,0 l/m 0,2 km/h (0 Bft) N-NO 22 9,4 C 10,6 C 0,0 km/h (0 Bft)
11.08.2012 03:15 10,9 C 89 % 0,0 l/m 0,0 km/h (0 Bft) O 90 9,2 C 10,4 C 0,0 km/h (0 Bft)
11.08.2012 03:20 10,9 C 89 % 0,0 l/m 0,0 km/h (0 Bft) O-SO 112 9,2 C 10,4 C 0,0 km/h (0 Bft)
11.08.2012 03:25 10,9 C 89 % 0,0 l/m 0,2 km/h (0 Bft) NW 315 9,2 C 10,4 C 0,0 km/h (0 Bft)
11.08.2012 03:30 10,8 C 89 % 0,0 l/m 0,2 km/h (0 Bft) W 270 9,1 C 10,4 C 0,0 km/h (0 Bft)
11.08.2012 03:35 10,8 C 89 % 0,0 l/m 0,0 km/h (0 Bft) NO 45 9,1 C 10,3 C 0,0 km/h (0 Bft)
11.08.2012 03:40 10,8 C 89 % 0,0 l/m 0,0 km/h (0 Bft) SO 135 9,1 C 10,3 C 0,0 km/h (0 Bft)
11.08.2012 03:45 10,6 C 89 % 0,0 l/m 0,0 km/h (0 Bft) N 360 8,9 C 10,1 C 0,0 km/h (0 Bft)
11.08.2012 03:50 10,5 C 89 % 0,0 l/m 0,0 km/h (0 Bft) O-NO 67 8,8 C 10,0 C 0,0 km/h (0 Bft)
11.08.2012 03:55 10,5 C 89 % 0,0 l/m 0,0 km/h (0 Bft) NO 45 8,8 C 10,0 C 0,0 km/h (0 Bft)
11.08.2012 04:00 10,3 C 89 % 0,0 l/m 0,0 km/h (0 Bft) W-SW 247 8,6 C 9,8 C 0,0 km/h (0 Bft)
11.08.2012 04:05 10,4 C 90 % 0,0 l/m 0,0 km/h (0 Bft) N-NO 22 8,8 C 9,8 C 0,0 km/h (0 Bft)
11.08.2012 04:10 10,3 C 90 % 0,0 l/m 0,0 km/h (0 Bft) NO 45 8,7 C 9,8 C 0,0 km/h (0 Bft)
11.08.2012 04:15 10,4 C 90 % 0,0 l/m 0,0 km/h (0 Bft) N 360 8,8 C 9,8 C 0,0 km/h (0 Bft)
11.08.2012 04:20 10,5 C 91 % 0,0 l/m 0,0 km/h (0 Bft) N 360 9,1 C 9,8 C 0,0 km/h (0 Bft)
11.08.2012 04:25 10,3 C 91 % 0,0 l/m 0,0 km/h (0 Bft) NO 45 8,9 C 9,8 C 0,0 km/h (0 Bft)
11.08.2012 04:30 10,4 C 91 % 0,0 l/m 0,0 km/h (0 Bft) N-NO 22 9,0 C 9,8 C 0,0 km/h (0 Bft)
11.08.2012 04:35 10,3 C 91 % 0,0 l/m 0,2 km/h (0 Bft) NO 45 8,9 C 9,8 C 0,0 km/h (0 Bft)
11.08.2012 04:40 10,3 C 91 % 0,0 l/m 0,2 km/h (0 Bft) NO 45 8,9 C 9,8 C 0,0 km/h (0 Bft)
11.08.2012 04:45 10,0 C 90 % 0,0 l/m 0,0 km/h (0 Bft) S-SO 157 8,4 C 9,6 C 0,0 km/h (0 Bft)
11.08.2012 04:50 9,7 C 90 % 0,0 l/m 0,0 km/h (0 Bft) S 180 8,1 C 9,4 C 0,0 km/h (0 Bft)
11.08.2012 04:55 9,7 C 90 % 0,0 l/m 0,0 km/h (0 Bft) N 360 8,1 C 9,2 C 0,0 km/h (0 Bft)
11.08.2012 05:00 9,6 C 90 % 0,0 l/m 0,0 km/h (0 Bft) N 360 8,0 C 9,0 C 0,0 km/h (0 Bft)
11.08.2012 05:05 9,6 C 90 % 0,0 l/m 0,0 km/h (0 Bft) W-NW 292 8,0 C 9,1 C 0,0 km/h (0 Bft)
11.08.2012 05:10 9,5 C 90 % 0,0 l/m 0,0 km/h (0 Bft) S 180 7,9 C 9,1 C 0,0 km/h (0 Bft)
11.08.2012 05:15 9,7 C 91 % 0,0 l/m 0,0 km/h (0 Bft) N-NO 22 8,3 C 9,1 C 0,0 km/h (0 Bft)
11.08.2012 05:20 9,7 C 91 % 0,0 l/m 0,0 km/h (0 Bft) W-SW 247 8,3 C 9,0 C 0,0 km/h (0 Bft)
11.08.2012 05:25 9,5 C 91 % 0,0 l/m 0,0 km/h (0 Bft) N 360 8,1 C 8,9 C 0,0 km/h (0 Bft)
11.08.2012 05:30 9,6 C 91 % 0,0 l/m 0,0 km/h (0 Bft) N-NO 22 8,2 C 8,9 C 0,0 km/h (0 Bft)
11.08.2012 05:35 9,7 C 91 % 0,0 l/m 0,0 km/h (0 Bft) N-NO 22 8,3 C 9,0 C 0,0 km/h (0 Bft)
11.08.2012 05:40 9,8 C 91 % 0,0 l/m 0,0 km/h (0 Bft) NW 315 8,4 C 9,0 C 0,0 km/h (0 Bft)
11.08.2012 05:45 9,4 C 91 % 0,0 l/m 0,0 km/h (0 Bft) S-SW 202 8,0 C 8,9 C 0,0 km/h (0 Bft)
11.08.2012 05:50 9,4 C 91 % 0,0 l/m 0,0 km/h (0 Bft) N-NW 337 8,0 C 8,8 C 0,0 km/h (0 Bft)
11.08.2012 05:55 9,4 C 91 % 0,0 l/m 0,0 km/h (0 Bft) N-NW 337 8,0 C 8,9 C 0,0 km/h (0 Bft)
11.08.2012 06:00 9,5 C 91 % 0,0 l/m 0,0 km/h (0 Bft) NO 45 8,1 C 9,0 C 0,0 km/h (0 Bft)
11.08.2012 06:05 9,6 C 92 % 0,0 l/m 0,2 km/h (0 Bft) N 360 8,4 C 9,0 C 2,3 km/h (1 Bft)
11.08.2012 06:10 9,7 C 92 % 0,0 l/m 0,3 km/h (0 Bft) NO 45 8,5 C 9,2 C 2,3 km/h (1 Bft)
11.08.2012 06:15 9,4 C 92 % 0,0 l/m 0,5 km/h (0 Bft) O-SO 112 8,2 C 9,1 C 0,0 km/h (0 Bft)
11.08.2012 06:20 9,3 C 91 % 0,0 l/m 0,2 km/h (0 Bft) N-NO 22 7,9 C 8,9 C 0,0 km/h (0 Bft)
11.08.2012 06:25 9,3 C 91 % 0,0 l/m 0,3 km/h (0 Bft) S-SW 202 7,9 C 8,9 C 1,8 km/h (1 Bft)
11.08.2012 06:30 9,3 C 91 % 0,0 l/m 0,5 km/h (0 Bft) N 360 7,9 C 8,9 C 0,0 km/h (0 Bft)
11.08.2012 06:35 9,5 C 91 % 0,0 l/m 0,3 km/h (0 Bft) NO 45 8,1 C 8,9 C 0,0 km/h (0 Bft)
11.08.2012 06:40 9,7 C 92 % 0,0 l/m 0,0 km/h (0 Bft) NO 45 8,5 C 9,0 C 1,8 km/h (1 Bft)
11.08.2012 06:45 9,9 C 92 % 0,0 l/m 0,3 km/h (0 Bft) N-NO 22 8,7 C 9,3 C 6,6 km/h (2 Bft)
11.08.2012 06:50 10,0 C 92 % 0,0 l/m 1,3 km/h (1 Bft) N 360 8,8 C 10,0 C 6,9 km/h (2 Bft)
11.08.2012 06:55 10,1 C 92 % 0,0 l/m 1,8 km/h (1 Bft) O-SO 112 8,9 C 10,5 C 0,0 km/h (0 Bft)
11.08.2012 07:00 10,0 C 91 % 0,0 l/m 1,0 km/h (0 Bft) W-SW 247 8,6 C 10,5 C 0,0 km/h (0 Bft)
11.08.2012 07:05 10,0 C 91 % 0,0 l/m 0,0 km/h (0 Bft) N-NW 337 8,6 C 10,7 C 0,0 km/h (0 Bft)
11.08.2012 07:10 10,3 C 91 % 0,0 l/m 0,0 km/h (0 Bft) NO 45 8,9 C 11,1 C 0,0 km/h (0 Bft)
11.08.2012 07:15 10,3 C 91 % 0,0 l/m 0,3 km/h (0 Bft) S 180 8,9 C 11,6 C 0,0 km/h (0 Bft)
11.08.2012 07:20 10,4 C 91 % 0,0 l/m 0,3 km/h (0 Bft) S 180 9,0 C 11,9 C 0,0 km/h (0 Bft)
11.08.2012 07:25 10,6 C 90 % 0,0 l/m 0,0 km/h (0 Bft) N 360 9,0 C 12,3 C 0,0 km/h (0 Bft)
11.08.2012 07:30 10,8 C 90 % 0,0 l/m 0,0 km/h (0 Bft) W-NW 292 9,2 C 12,7 C 0,0 km/h (0 Bft)
11.08.2012 07:35 12,1 C 89 % 0,0 l/m 0,0 km/h (0 Bft) W 270 10,3 C 13,7 C 0,0 km/h (0 Bft)
11.08.2012 07:40 13,7 C 88 % 0,0 l/m 0,0 km/h (0 Bft) S 180 11,7 C 14,7 C 0,0 km/h (0 Bft)
11.08.2012 07:45 14,2 C 85 % 0,0 l/m 0,0 km/h (0 Bft) N-NW 337 11,7 C 15,4 C 0,0 km/h (0 Bft)
11.08.2012 07:50 12,7 C 85 % 0,0 l/m 0,2 km/h (0 Bft) W-SW 247 10,2 C 14,8 C 2,6 km/h (1 Bft)
11.08.2012 07:55 12,1 C 86 % 0,0 l/m 0,5 km/h (0 Bft) S 180 9,8 C 13,1 C 0,0 km/h (0 Bft)
11.08.2012 08:00 12,0 C 86 % 0,0 l/m 0,8 km/h (0 Bft) S-SO 157 9,7 C 12,5 C 1,8 km/h (1 Bft)
11.08.2012 08:05 12,4 C 87 % 0,0 l/m 0,3 km/h (0 Bft) S-SO 157 10,3 C 12,2 C 0,0 km/h (0 Bft)
11.08.2012 08:10 12,5 C 87 % 0,0 l/m 0,0 km/h (0 Bft) W-NW 292 10,4 C 12,2 C 0,0 km/h (0 Bft)
11.08.2012 08:15 12,7 C 86 % 0,0 l/m 0,0 km/h (0 Bft) W-SW 247 10,4 C 12,4 C 0,0 km/h (0 Bft)
11.08.2012 08:20 13,0 C 86 % 0,0 l/m 0,0 km/h (0 Bft) W-NW 292 10,7 C 12,7 C 0,0 km/h (0 Bft)
11.08.2012 08:25 14,9 C 84 % 0,0 l/m 0,2 km/h (0 Bft) W-NW 292 12,2 C 13,5 C 0,0 km/h (0 Bft)
11.08.2012 08:30 16,5 C 80 % 0,0 l/m 0,0 km/h (0 Bft) S 180 13,0 C 15,2 C 0,0 km/h (0 Bft)
11.08.2012 08:35 17,0 C 76 % 0,0 l/m 0,0 km/h (0 Bft) O-SO 112 13,7 C 17,3 C 0,0 km/h (0 Bft)
11.08.2012 08:40 17,1 C 73 % 0,0 l/m 0,3 km/h (0 Bft) W 270 13,1 C 18,2 C 2,4 km/h (1 Bft)
11.08.2012 08:45 16,8 C 71 % 0,0 l/m 0,6 km/h (0 Bft) NO 45 11,6 C 18,2 C 1,9 km/h (1 Bft)
11.08.2012 08:50 16,6 C 67 % 0,0 l/m 1,4 km/h (1 Bft) NW 315 11,2 C 18,4 C 1,9 km/h (1 Bft)
11.08.2012 08:55 16,9 C 65 % 0,0 l/m 1,6 km/h (1 Bft) NO 45 11,1 C 18,7 C 2,6 km/h (1 Bft)
11.08.2012 09:00 16,0 C 70 % 0,0 l/m 1,9 km/h (1 Bft) W-NW 292 10,5 C 18,4 C 5,5 km/h (1 Bft)
11.08.2012 09:05 15,1 C 75 % 0,0 l/m 2,7 km/h (1 Bft) W 270 10,7 C 16,9 C 0,0 km/h (0 Bft)
11.08.2012 09:10 14,6 C 76 % 0,0 l/m 3,5 km/h (1 Bft) W-SW 247 10,4 C 16,1 C 7,4 km/h (2 Bft)
11.08.2012 09:15 13,9 C 78 % 0,0 l/m 4,5 km/h (1 Bft) W-NW 292 10,1 C 14,9 C 9,3 km/h (2 Bft)
11.08.2012 09:20 13,9 C 79 % 0,0 l/m 4,3 km/h (1 Bft) W-SW 247 10,3 C 14,4 C 2,6 km/h (1 Bft)
11.08.2012 09:25 13,7 C 79 % 0,0 l/m 2,9 km/h (1 Bft) S-SW 202 10,1 C 14,1 C 2,9 km/h (1 Bft)
11.08.2012 09:30 13,9 C 79 % 0,0 l/m 2,7 km/h (1 Bft) W-SW 247 10,3 C 14,1 C 3,4 km/h (1 Bft)
11.08.2012 09:35 14,0 C 79 % 0,0 l/m 2,7 km/h (1 Bft) W-NW 292 10,4 C 14,3 C 6,0 km/h (2 Bft)
11.08.2012 09:40 14,0 C 79 % 0,0 l/m 3,2 km/h (1 Bft) N-NW 337 10,4 C 14,3 C 4,3 km/h (1 Bft)
11.08.2012 09:45 14,3 C 78 % 0,0 l/m 2,6 km/h (1 Bft) NW 315 10,5 C 14,9 C 4,7 km/h (1 Bft)
11.08.2012 09:50 14,4 C 78 % 0,0 l/m 2,6 km/h (1 Bft) SW 225 10,6 C 15,0 C 2,7 km/h (1 Bft)
11.08.2012 09:55 14,4 C 78 % 0,0 l/m 2,7 km/h (1 Bft) W 270 10,6 C 15,1 C 2,9 km/h (1 Bft)
11.08.2012 10:00 14,6 C 78 % 0,0 l/m 2,4 km/h (1 Bft) W 270 10,8 C 15,2 C 4,7 km/h (1 Bft)
11.08.2012 10:05 14,3 C 78 % 0,0 l/m 2,4 km/h (1 Bft) W-NW 292 10,5 C 15,1 C 4,3 km/h (1 Bft)
11.08.2012 10:10 14,3 C 78 % 0,0 l/m 2,4 km/h (1 Bft) W-NW 292 10,5 C 15,1 C 2,9 km/h (1 Bft)
11.08.2012 10:15 14,3 C 78 % 0,0 l/m 2,7 km/h (1 Bft) W-NW 292 10,5 C 15,1 C 4,7 km/h (1 Bft)
11.08.2012 10:20 14,6 C 78 % 0,0 l/m 3,1 km/h (1 Bft) W-NW 292 10,8 C 15,1 C 3,5 km/h (1 Bft)
11.08.2012 10:25 15,0 C 77 % 0,0 l/m 3,4 km/h (1 Bft) W-NW 292 11,0 C 15,3 C 5,6 km/h (1 Bft)
11.08.2012 10:30 15,1 C 75 % 0,0 l/m 3,4 km/h (1 Bft) W-NW 292 10,7 C 15,7 C 2,7 km/h (1 Bft)
11.08.2012 10:35 15,7 C 74 % 0,0 l/m 3,2 km/h (1 Bft) SO 135 11,1 C 16,3 C 4,5 km/h (1 Bft)
11.08.2012 10:40 15,7 C 74 % 0,0 l/m 2,9 km/h (1 Bft) W-SW 247 11,1 C 16,7 C 2,3 km/h (1 Bft)
11.08.2012 10:45 15,7 C 75 % 0,0 l/m 2,3 km/h (1 Bft) W-SW 247 11,3 C 17,0 C 4,2 km/h (1 Bft)
11.08.2012 10:50 15,4 C 74 % 0,0 l/m 1,6 km/h (1 Bft) N-NW 337 10,8 C 17,0 C 0,0 km/h (0 Bft)
11.08.2012 10:55 16,1 C 74 % 0,0 l/m 1,1 km/h (1 Bft) N-NW 337 11,5 C 17,3 C 3,4 km/h (1 Bft)
11.08.2012 11:00 16,3 C 72 % 0,0 l/m 1,6 km/h (1 Bft) W 270 11,2 C 17,4 C 5,3 km/h (1 Bft)
11.08.2012 11:05 15,5 C 73 % 0,0 l/m 4,0 km/h (1 Bft) W-NW 292 10,7 C 17,0 C 4,3 km/h (1 Bft)
11.08.2012 11:10 15,6 C 73 % 0,0 l/m 4,2 km/h (1 Bft) N-NW 337 10,8 C 16,6 C 3,7 km/h (1 Bft)
11.08.2012 11:15 15,8 C 73 % 0,0 l/m 4,0 km/h (1 Bft) W-NW 292 11,0 C 16,5 C 6,0 km/h (2 Bft)
11.08.2012 11:20 16,0 C 71 % 0,0 l/m 4,2 km/h (1 Bft) O 90 10,7 C 16,6 C 3,7 km/h (1 Bft)
11.08.2012 11:25 16,5 C 70 % 0,0 l/m 3,4 km/h (1 Bft) W 270 11,0 C 17,2 C 8,5 km/h (2 Bft)
11.08.2012 11:30 16,3 C 70 % 0,0 l/m 3,2 km/h (1 Bft) W-SW 247 10,8 C 17,2 C 4,2 km/h (1 Bft)
11.08.2012 11:35 16,0 C 71 % 0,0 l/m 4,2 km/h (1 Bft) NW 315 10,7 C 17,1 C 2,3 km/h (1 Bft)
11.08.2012 11:40 16,0 C 71 % 0,0 l/m 3,7 km/h (1 Bft) W-SW 247 10,7 C 17,1 C 6,9 km/h (2 Bft)
11.08.2012 11:45 16,5 C 70 % 0,0 l/m 3,5 km/h (1 Bft) N-NW 337 11,0 C 17,2 C 3,5 km/h (1 Bft)
11.08.2012 11:50 16,8 C 68 % 0,0 l/m 4,2 km/h (1 Bft) W-NW 292 10,9 C 17,6 C 6,1 km/h (2 Bft)
11.08.2012 11:55 17,9 C 65 % 0,0 l/m 3,5 km/h (1 Bft) W-SW 247 11,3 C 18,6 C 7,2 km/h (2 Bft)
11.08.2012 12:00 18,0 C 65 % 0,0 l/m 3,4 km/h (1 Bft) W-NW 292 11,5 C 19,4 C 6,4 km/h (2 Bft)
11.08.2012 12:05 18,2 C 66 % 0,0 l/m 4,3 km/h (1 Bft) NO 45 11,9 C 19,5 C 5,5 km/h (1 Bft)
11.08.2012 12:10 17,8 C 65 % 0,0 l/m 4,8 km/h (1 Bft) W-NW 292 11,1 C 19,5 C 3,2 km/h (1 Bft)
11.08.2012 12:15 18,4 C 59 % 0,0 l/m 4,7 km/h (1 Bft) N 360 10,3 C 19,8 C 2,9 km/h (1 Bft)
11.08.2012 12:20 17,8 C 60 % 0,0 l/m 4,0 km/h (1 Bft) SO 135 9,9 C 20,0 C 3,9 km/h (1 Bft)
11.08.2012 12:25 18,1 C 64 % 0,0 l/m 4,3 km/h (1 Bft) W-NW 292 11,2 C 19,5 C 10,1 km/h (2 Bft)
11.08.2012 12:30 18,2 C 64 % 0,0 l/m 4,5 km/h (1 Bft) W 270 11,3 C 19,5 C 8,9 km/h (2 Bft)
11.08.2012 12:35 18,5 C 60 % 0,0 l/m 3,9 km/h (1 Bft) N-NW 337 10,6 C 20,3 C 2,4 km/h (1 Bft)
11.08.2012 12:40 18,8 C 61 % 0,0 l/m 3,7 km/h (1 Bft) W-NW 292 11,1 C 20,6 C 5,5 km/h (1 Bft)
11.08.2012 12:45 18,2 C 61 % 0,0 l/m 3,7 km/h (1 Bft) W 270 10,6 C 20,4 C 7,2 km/h (2 Bft)
11.08.2012 12:50 19,4 C 58 % 0,0 l/m 3,7 km/h (1 Bft) N 360 10,9 C 20,4 C 2,9 km/h (1 Bft)
11.08.2012 12:55 19,2 C 59 % 0,0 l/m 4,0 km/h (1 Bft) W-NW 292 11,0 C 21,3 C 5,5 km/h (1 Bft)
11.08.2012 13:00 19,5 C 59 % 0,0 l/m 4,2 km/h (1 Bft) W-SW 247 11,3 C 21,5 C 5,1 km/h (1 Bft)
11.08.2012 13:05 17,9 C 63 % 0,0 l/m 4,3 km/h (1 Bft) W-SW 247 10,8 C 20,7 C 4,5 km/h (1 Bft)
11.08.2012 13:10 17,7 C 65 % 0,0 l/m 4,0 km/h (1 Bft) W-SW 247 11,0 C 19,9 C 4,5 km/h (1 Bft)
11.08.2012 13:15 19,3 C 60 % 0,0 l/m 3,5 km/h (1 Bft) W-NW 292 11,3 C 20,4 C 6,1 km/h (2 Bft)
11.08.2012 13:20 20,2 C 59 % 0,0 l/m 3,5 km/h (1 Bft) S-SW 202 11,9 C 21,7 C 2,6 km/h (1 Bft)
11.08.2012 13:25 18,9 C 58 % 0,0 l/m 3,9 km/h (1 Bft) W-NW 292 10,5 C 21,9 C 6,4 km/h (2 Bft)
11.08.2012 13:30 18,5 C 60 % 0,0 l/m 3,7 km/h (1 Bft) SW 225 10,6 C 21,2 C 6,4 km/h (2 Bft)
11.08.2012 13:35 18,3 C 62 % 0,0 l/m 4,5 km/h (1 Bft) W-NW 292 10,9 C 20,2 C 9,3 km/h (2 Bft)
11.08.2012 13:40 18,2 C 62 % 0,0 l/m 5,1 km/h (1 Bft) W-SW 247 10,8 C 19,6 C 3,4 km/h (1 Bft)
11.08.2012 13:45 18,4 C 63 % 0,0 l/m 4,2 km/h (1 Bft) NW 315 11,2 C 19,6 C 3,4 km/h (1 Bft)
11.08.2012 13:50 18,5 C 62 % 0,0 l/m 3,2 km/h (1 Bft) W-NW 292 11,1 C 19,8 C 3,5 km/h (1 Bft)
11.08.2012 13:55 19,7 C 59 % 0,0 l/m 4,8 km/h (1 Bft) W-SW 247 11,5 C 20,4 C 11,6 km/h (2 Bft)
11.08.2012 14:00 19,4 C 58 % 0,0 l/m 5,5 km/h (1 Bft) N-NW 337 10,9 C 21,1 C 6,1 km/h (2 Bft)
11.08.2012 14:05 20,4 C 53 % 0,0 l/m 5,1 km/h (1 Bft) W 270 10,5 C 21,9 C 4,3 km/h (1 Bft)
11.08.2012 14:10 20,5 C 54 % 0,0 l/m 4,0 km/h (1 Bft) W-NW 292 10,9 C 23,0 C 3,9 km/h (1 Bft)
11.08.2012 14:15 19,4 C 56 % 0,0 l/m 5,0 km/h (1 Bft) W-SW 247 10,4 C 22,7 C 14,8 km/h (3 Bft)
11.08.2012 14:20 18,6 C 58 % 0,0 l/m 5,6 km/h (1 Bft) W-SW 247 10,2 C 21,2 C 5,0 km/h (1 Bft)
11.08.2012 14:25 18,4 C 59 % 0,0 l/m 4,8 km/h (1 Bft) S-SO 157 10,2 C 20,1 C 5,5 km/h (1 Bft)
11.08.2012 14:30 18,4 C 58 % 0,0 l/m 4,0 km/h (1 Bft) W-NW 292 10,0 C 19,9 C 4,5 km/h (1 Bft)
11.08.2012 14:35 18,5 C 59 % 0,0 l/m 4,8 km/h (1 Bft) N-NW 337 10,3 C 19,6 C 6,9 km/h (2 Bft)
11.08.2012 14:40 18,7 C 60 % 0,0 l/m 4,2 km/h (1 Bft) S-SW 202 10,8 C 19,9 C 3,4 km/h (1 Bft)
11.08.2012 14:45 19,6 C 58 % 0,0 l/m 4,2 km/h (1 Bft) W-NW 292 11,1 C 20,7 C 6,9 km/h (2 Bft)
11.08.2012 14:50 19,8 C 56 % 0,0 l/m 4,5 km/h (1 Bft) N-NW 337 10,8 C 21,1 C 6,6 km/h (2 Bft)
11.08.2012 14:55 19,4 C 58 % 0,0 l/m 4,5 km/h (1 Bft) SW 225 10,9 C 21,4 C 3,9 km/h (1 Bft)
11.08.2012 15:00 18,4 C 58 % 0,0 l/m 4,8 km/h (1 Bft) NO 45 10,0 C 20,6 C 6,3 km/h (2 Bft)
11.08.2012 15:05 19,1 C 57 % 0,0 l/m 4,7 km/h (1 Bft) W 270 10,4 C 19,8 C 3,5 km/h (1 Bft)
11.08.2012 15:10 20,4 C 53 % 0,0 l/m 4,3 km/h (1 Bft) NW 315 10,5 C 20,6 C 6,8 km/h (2 Bft)
11.08.2012 15:15 19,9 C 54 % 0,0 l/m 4,8 km/h (1 Bft) W 270 10,3 C 22,0 C 6,1 km/h (2 Bft)
11.08.2012 15:20 18,9 C 57 % 0,0 l/m 5,6 km/h (1 Bft) O-NO 67 10,2 C 21,4 C 7,6 km/h (2 Bft)
11.08.2012 15:25 18,9 C 57 % 0,0 l/m 4,8 km/h (1 Bft) W-SW 247 10,2 C 20,7 C 6,8 km/h (2 Bft)
11.08.2012 15:30 19,7 C 56 % 0,0 l/m 4,8 km/h (1 Bft) W-SW 247 10,7 C 20,6 C 8,0 km/h (2 Bft)
11.08.2012 15:35 20,3 C 53 % 0,0 l/m 5,1 km/h (1 Bft) W-SW 247 10,4 C 21,2 C 6,1 km/h (2 Bft)
11.08.2012 15:40 19,6 C 55 % 0,0 l/m 5,3 km/h (1 Bft) W-SW 247 10,3 C 21,5 C 4,7 km/h (1 Bft)
11.08.2012 15:45 18,6 C 56 % 0,0 l/m 4,7 km/h (1 Bft) N-NW 337 9,6 C 20,5 C 3,5 km/h (1 Bft)
11.08.2012 15:50 19,6 C 56 % 0,0 l/m 3,5 km/h (1 Bft) W 270 10,6 C 20,9 C 6,1 km/h (2 Bft)
11.08.2012 15:55 20,5 C 52 % 0,0 l/m 4,2 km/h (1 Bft) W-NW 292 10,3 C 21,8 C 5,0 km/h (1 Bft)
11.08.2012 16:00 20,9 C 54 % 0,0 l/m 5,5 km/h (1 Bft) NW 315 11,2 C 22,5 C 10,6 km/h (2 Bft)
11.08.2012 16:05 20,1 C 54 % 0,0 l/m 5,3 km/h (1 Bft) W-SW 247 10,5 C 22,6 C 10,5 km/h (2 Bft)
11.08.2012 16:10 18,9 C 56 % 0,0 l/m 6,0 km/h (2 Bft) W-SW 247 9,9 C 21,6 C 7,7 km/h (2 Bft)
11.08.2012 16:15 18,3 C 56 % 0,0 l/m 6,1 km/h (2 Bft) W 270 9,4 C 20,1 C 7,1 km/h (2 Bft)
11.08.2012 16:20 17,8 C 59 % 0,0 l/m 5,5 km/h (1 Bft) N-NW 337 9,7 C 19,3 C 3,1 km/h (1 Bft)
11.08.2012 16:25 18,7 C 57 % 0,0 l/m 4,0 km/h (1 Bft) N-NW 337 10,0 C 19,5 C 5,5 km/h (1 Bft)
11.08.2012 16:30 19,3 C 56 % 0,0 l/m 4,0 km/h (1 Bft) W-NW 292 10,3 C 20,4 C 7,4 km/h (2 Bft)
11.08.2012 16:35 19,3 C 54 % 0,0 l/m 4,8 km/h (1 Bft) W 270 9,8 C 21,6 C 3,1 km/h (1 Bft)
11.08.2012 16:40 19,3 C 56 % 0,0 l/m 4,8 km/h (1 Bft) W-NW 292 10,3 C 22,3 C 9,0 km/h (2 Bft)
11.08.2012 16:45 19,2 C 56 % 0,0 l/m 5,0 km/h (1 Bft) W-SW 247 10,2 C 22,7 C 6,3 km/h (2 Bft)
11.08.2012 16:50 18,7 C 56 % 0,0 l/m 5,8 km/h (2 Bft) O-SO 112 9,7 C 22,3 C 7,4 km/h (2 Bft)
11.08.2012 16:55 17,9 C 58 % 0,0 l/m 5,5 km/h (1 Bft) SW 225 9,5 C 21,0 C 9,3 km/h (2 Bft)
11.08.2012 17:00 18,1 C 58 % 0,0 l/m 5,3 km/h (1 Bft) W-NW 292 9,7 C 20,4 C 7,9 km/h (2 Bft)
11.08.2012 17:05 18,3 C 59 % 0,0 l/m 5,0 km/h (1 Bft) W-SW 247 10,1 C 21,2 C 8,2 km/h (2 Bft)
11.08.2012 17:10 18,4 C 58 % 0,0 l/m 4,7 km/h (1 Bft) W-NW 292 10,0 C 21,9 C 3,4 km/h (1 Bft)
11.08.2012 17:15 18,2 C 58 % 0,0 l/m 4,5 km/h (1 Bft) W-SW 247 9,8 C 22,2 C 6,4 km/h (2 Bft)
11.08.2012 17:20 18,4 C 59 % 0,0 l/m 4,2 km/h (1 Bft) W 270 10,2 C 22,4 C 3,7 km/h (1 Bft)
11.08.2012 17:25 18,5 C 58 % 0,0 l/m 4,3 km/h (1 Bft) N-NW 337 10,1 C 22,9 C 2,9 km/h (1 Bft)
11.08.2012 17:30 18,6 C 58 % 0,0 l/m 5,5 km/h (1 Bft) N-NW 337 10,2 C 22,8 C 10,0 km/h (2 Bft)
11.08.2012 17:35 18,6 C 58 % 0,0 l/m 5,3 km/h (1 Bft) W-NW 292 10,2 C 22,9 C 11,3 km/h (2 Bft)
11.08.2012 17:40 18,0 C 57 % 0,0 l/m 5,8 km/h (2 Bft) W 270 9,4 C 22,2 C 10,0 km/h (2 Bft)
11.08.2012 17:45 17,3 C 59 % 0,0 l/m 5,0 km/h (1 Bft) W-NW 292 9,2 C 20,4 C 2,6 km/h (1 Bft)
11.08.2012 17:50 17,2 C 60 % 0,0 l/m 4,0 km/h (1 Bft) W-SW 247 9,4 C 19,5 C 4,2 km/h (1 Bft)
11.08.2012 17:55 17,7 C 59 % 0,0 l/m 3,2 km/h (1 Bft) W-SW 247 9,6 C 20,3 C 5,3 km/h (1 Bft)
11.08.2012 18:00 17,7 C 58 % 0,0 l/m 3,5 km/h (1 Bft) W 270 9,3 C 21,2 C 7,2 km/h (2 Bft)
11.08.2012 18:05 17,8 C 58 % 0,0 l/m 5,0 km/h (1 Bft) W-SW 247 9,4 C 21,5 C 8,2 km/h (2 Bft)
11.08.2012 18:10 17,7 C 57 % 0,0 l/m 5,6 km/h (1 Bft) W-NW 292 9,1 C 21,4 C 7,6 km/h (2 Bft)
11.08.2012 18:15 17,6 C 57 % 0,0 l/m 5,3 km/h (1 Bft) W-SW 247 9,0 C 21,5 C 4,0 km/h (1 Bft)
11.08.2012 18:20 17,5 C 58 % 0,0 l/m 4,7 km/h (1 Bft) SW 225 9,1 C 21,6 C 7,6 km/h (2 Bft)
11.08.2012 18:25 17,5 C 59 % 0,0 l/m 4,8 km/h (1 Bft) S 180 9,4 C 21,4 C 4,0 km/h (1 Bft)
11.08.2012 18:30 17,4 C 59 % 0,0 l/m 5,5 km/h (1 Bft) W 270 9,3 C 21,4 C 6,4 km/h (2 Bft)
11.08.2012 18:35 17,3 C 60 % 0,0 l/m 5,0 km/h (1 Bft) W 270 9,5 C 21,2 C 6,9 km/h (2 Bft)
11.08.2012 18:40 17,3 C 60 % 0,0 l/m 4,8 km/h (1 Bft) W-NW 292 9,5 C 21,2 C 10,3 km/h (2 Bft)
11.08.2012 18:45 17,2 C 60 % 0,0 l/m 5,6 km/h (1 Bft) W-SW 247 9,4 C 20,9 C 6,8 km/h (2 Bft)
11.08.2012 18:50 17,1 C 61 % 0,0 l/m 6,0 km/h (2 Bft) NW 315 9,5 C 20,7 C 6,0 km/h (2 Bft)
11.08.2012 18:55 17,0 C 61 % 0,0 l/m 4,8 km/h (1 Bft) S-SW 202 9,4 C 20,6 C 5,0 km/h (1 Bft)
11.08.2012 19:00 16,9 C 61 % 0,0 l/m 4,8 km/h (1 Bft) W 270 9,3 C 20,4 C 5,0 km/h (1 Bft)
11.08.2012 19:05 16,7 C 63 % 0,0 l/m 4,7 km/h (1 Bft) NO 45 9,6 C 20,2 C 7,2 km/h (2 Bft)
11.08.2012 19:10 16,6 C 64 % 0,0 l/m 4,0 km/h (1 Bft) W-NW 292 9,8 C 20,2 C 7,9 km/h (2 Bft)
11.08.2012 19:15 16,4 C 63 % 0,0 l/m 4,0 km/h (1 Bft) N 360 9,3 C 20,0 C 4,3 km/h (1 Bft)
11.08.2012 19:20 16,2 C 64 % 0,0 l/m 4,2 km/h (1 Bft) W-NW 292 9,4 C 19,7 C 4,2 km/h (1 Bft)
11.08.2012 19:25 16,1 C 66 % 0,0 l/m 5,0 km/h (1 Bft) N-NW 337 9,7 C 19,2 C 9,0 km/h (2 Bft)
11.08.2012 19:30 15,9 C 67 % 0,0 l/m 4,8 km/h (1 Bft) W-NW 292 9,8 C 18,8 C 5,8 km/h (2 Bft)
11.08.2012 19:35 15,8 C 68 % 0,0 l/m 4,5 km/h (1 Bft) W-SW 247 9,9 C 18,6 C 8,2 km/h (2 Bft)
11.08.2012 19:40 15,7 C 68 % 0,0 l/m 4,5 km/h (1 Bft) N-NW 337 9,8 C 18,3 C 6,3 km/h (2 Bft)
11.08.2012 19:45 15,5 C 68 % 0,0 l/m 4,5 km/h (1 Bft) W 270 9,6 C 18,0 C 7,9 km/h (2 Bft)
11.08.2012 19:50 15,3 C 69 % 0,0 l/m 4,3 km/h (1 Bft) W 270 9,6 C 17,7 C 3,4 km/h (1 Bft)
11.08.2012 19:55 15,0 C 70 % 0,0 l/m 3,7 km/h (1 Bft) W-NW 292 9,6 C 17,4 C 4,5 km/h (1 Bft)
11.08.2012 20:00 14,9 C 70 % 0,0 l/m 2,3 km/h (1 Bft) NO 45 9,5 C 17,2 C 0,0 km/h (0 Bft)
11.08.2012 20:05 14,7 C 72 % 0,0 l/m 1,4 km/h (1 Bft) W-NW 292 9,7 C 16,9 C 3,4 km/h (1 Bft)
11.08.2012 20:10 14,5 C 71 % 0,0 l/m 1,3 km/h (1 Bft) N-NW 337 9,3 C 16,6 C 2,4 km/h (1 Bft)
11.08.2012 20:15 14,2 C 71 % 0,0 l/m 1,3 km/h (1 Bft) N-NW 337 9,0 C 16,1 C 1,6 km/h (1 Bft)
11.08.2012 20:20 14,1 C 72 % 0,0 l/m 1,9 km/h (1 Bft) N-NW 337 9,1 C 15,7 C 2,1 km/h (1 Bft)
11.08.2012 20:25 13,8 C 72 % 0,0 l/m 1,4 km/h (1 Bft) N 360 8,8 C 15,1 C 0,0 km/h (0 Bft)
11.08.2012 20:30 13,6 C 73 % 0,0 l/m 1,0 km/h (0 Bft) N-NO 22 8,9 C 14,6 C 3,5 km/h (1 Bft)
11.08.2012 20:35 13,6 C 74 % 0,0 l/m 1,4 km/h (1 Bft) N-NW 337 9,1 C 13,9 C 5,0 km/h (1 Bft)
11.08.2012 20:40 13,3 C 74 % 0,0 l/m 1,9 km/h (1 Bft) N 360 8,8 C 13,6 C 3,7 km/h (1 Bft)
11.08.2012 20:45 13,1 C 74 % 0,0 l/m 2,4 km/h (1 Bft) N-NW 337 8,6 C 13,2 C 2,6 km/h (1 Bft)
11.08.2012 20:50 13,1 C 75 % 0,0 l/m 2,1 km/h (1 Bft) N-NW 337 8,8 C 12,9 C 3,7 km/h (1 Bft)
11.08.2012 20:55 12,9 C 76 % 0,0 l/m 1,6 km/h (1 Bft) W-NW 292 8,8 C 12,6 C 2,3 km/h (1 Bft)
11.08.2012 21:00 12,7 C 76 % 0,0 l/m 2,4 km/h (1 Bft) W-NW 292 8,6 C 12,6 C 2,3 km/h (1 Bft)
11.08.2012 21:05 12,8 C 76 % 0,0 l/m 2,3 km/h (1 Bft) N-NW 337 8,7 C 12,4 C 2,6 km/h (1 Bft)
11.08.2012 21:10 12,7 C 76 % 0,0 l/m 1,9 km/h (1 Bft) NW 315 8,6 C 12,3 C 4,5 km/h (1 Bft)
11.08.2012 21:15 12,5 C 76 % 0,0 l/m 1,6 km/h (1 Bft) N-NW 337 8,4 C 12,2 C 5,6 km/h (1 Bft)
11.08.2012 21:20 12,4 C 77 % 0,0 l/m 2,4 km/h (1 Bft) N 360 8,5 C 12,2 C 5,0 km/h (1 Bft)
11.08.2012 21:25 12,2 C 76 % 0,0 l/m 1,6 km/h (1 Bft) NO 45 8,1 C 11,9 C 1,8 km/h (1 Bft)
11.08.2012 21:30 12,2 C 77 % 0,0 l/m 0,5 km/h (0 Bft) W-NW 292 8,3 C 11,7 C 0,0 km/h (0 Bft)
11.08.2012 21:35 12,1 C 77 % 0,0 l/m 0,5 km/h (0 Bft) S-SW 202 8,2 C 11,5 C 2,4 km/h (1 Bft)
11.08.2012 21:40 12,1 C 77 % 0,0 l/m 0,8 km/h (0 Bft) N 360 8,2 C 11,5 C 2,1 km/h (1 Bft)
11.08.2012 21:45 12,1 C 77 % 0,0 l/m 1,0 km/h (0 Bft) NO 45 8,2 C 11,3 C 0,0 km/h (0 Bft)
11.08.2012 21:50 12,0 C 77 % 0,0 l/m 1,0 km/h (0 Bft) N-NW 337 8,1 C 11,2 C 2,1 km/h (1 Bft)
11.08.2012 21:55 11,9 C 77 % 0,0 l/m 0,5 km/h (0 Bft) N-NO 22 8,0 C 11,1 C 1,6 km/h (1 Bft)
11.08.2012 22:00 11,8 C 77 % 0,0 l/m 0,5 km/h (0 Bft) N-NO 22 7,9 C 11,0 C 2,6 km/h (1 Bft)
11.08.2012 22:05 11,7 C 77 % 0,0 l/m 0,2 km/h (0 Bft) N-NW 337 7,8 C 10,7 C 0,0 km/h (0 Bft)
11.08.2012 22:10 11,4 C 77 % 0,0 l/m 0,2 km/h (0 Bft) N 360 7,5 C 10,5 C 0,0 km/h (0 Bft)
11.08.2012 22:15 11,3 C 78 % 0,0 l/m 0,0 km/h (0 Bft) N-NW 337 7,6 C 10,2 C 0,0 km/h (0 Bft)
11.08.2012 22:20 11,3 C 78 % 0,0 l/m 0,0 km/h (0 Bft) N-NO 22 7,6 C 10,0 C 0,0 km/h (0 Bft)
11.08.2012 22:25 10,7 C 78 % 0,0 l/m 0,0 km/h (0 Bft) SO 135 7,0 C 9,6 C 0,0 km/h (0 Bft)
11.08.2012 22:30 10,4 C 79 % 0,0 l/m 0,0 km/h (0 Bft) NO 45 6,9 C 9,4 C 0,0 km/h (0 Bft)
11.08.2012 22:35 10,2 C 79 % 0,0 l/m 0,0 km/h (0 Bft) N-NW 337 6,7 C 9,2 C 0,0 km/h (0 Bft)
11.08.2012 22:40 10,1 C 80 % 0,0 l/m 0,0 km/h (0 Bft) NO 45 6,8 C 9,1 C 0,0 km/h (0 Bft)
11.08.2012 22:45 10,5 C 81 % 0,0 l/m 0,0 km/h (0 Bft) N 360 7,4 C 9,0 C 0,0 km/h (0 Bft)
11.08.2012 22:50 10,3 C 81 % 0,0 l/m 0,0 km/h (0 Bft) NO 45 7,2 C 9,0 C 0,0 km/h (0 Bft)
11.08.2012 22:55 9,9 C 81 % 0,0 l/m 0,0 km/h (0 Bft) NO 45 6,8 C 8,8 C 0,0 km/h (0 Bft)
11.08.2012 23:00 9,8 C 82 % 0,0 l/m 0,0 km/h (0 Bft) NO 45 6,9 C 8,6 C 0,0 km/h (0 Bft)
11.08.2012 23:05 9,7 C 82 % 0,0 l/m 0,0 km/h (0 Bft) NO 45 6,8 C 8,3 C 0,0 km/h (0 Bft)
11.08.2012 23:10 9,5 C 82 % 0,0 l/m 0,0 km/h (0 Bft) N-NO 22 6,6 C 8,3 C 0,0 km/h (0 Bft)
11.08.2012 23:15 9,8 C 83 % 0,0 l/m 0,0 km/h (0 Bft) N 360 7,1 C 8,4 C 1,8 km/h (1 Bft)
11.08.2012 23:20 9,8 C 84 % 0,0 l/m 0,0 km/h (0 Bft) N 360 7,2 C 8,3 C 0,0 km/h (0 Bft)
11.08.2012 23:25 9,8 C 84 % 0,0 l/m 0,0 km/h (0 Bft) NO 45 7,2 C 8,3 C 0,0 km/h (0 Bft)
11.08.2012 23:30 9,7 C 84 % 0,0 l/m 0,0 km/h (0 Bft) N-NO 22 7,1 C 8,3 C 0,0 km/h (0 Bft)
11.08.2012 23:35 9,7 C 85 % 0,0 l/m 0,2 km/h (0 Bft) NO 45 7,3 C 8,3 C 2,1 km/h (1 Bft)
11.08.2012 23:40 9,4 C 85 % 0,0 l/m 0,2 km/h (0 Bft) N-NO 22 7,0 C 8,2 C 0,0 km/h (0 Bft)
11.08.2012 23:45 9,3 C 85 % 0,0 l/m 0,0 km/h (0 Bft) N-NO 22 6,9 C 8,0 C 0,0 km/h (0 Bft)
11.08.2012 23:50 9,5 C 86 % 0,0 l/m 0,0 km/h (0 Bft) N-NO 22 7,3 C 8,0 C 0,0 km/h (0 Bft)
11.08.2012 23:55 9,1 C 85 % 0,0 l/m 0,0 km/h (0 Bft) S 180 6,7 C 7,9 C 0,0 km/h (0 Bft)
_ Min-Zeit 23:55 15:55 - 23:55 - - 23:10 23:55 23:55
Minimum _ 9,1 C 52 % - 0,0 km/h (0 Bft) - - 6,6 C 7,9 C 0,0 km/h (0 Bft)
_ Max-Zeit 16:00 06:55 23:55 16:15 - - 08:35 14:10 14:15
Maximum _ 20,9 C 92 % 0,0 l/m 6,1 km/h
W (2 Bft)
- - 13,7 C 23,0 C 14,8 km/h
W-SW (3 Bft)
Durchschnitt _ 14,3 C 75 % #0,0 l/m 2,1 km/h (1 Bft) W-NW - 9,7 C 15,1 C 3,0 km/h (1 Bft)